Time;durP1;ratioP1;P1;durP2;ratioP2;P2;SDS_P1;SDS_P2;PMS_P1;PMS_P2;Temp;Humidity;BMP_temperature;BMP_pressure;BME280_temperature;BME280_humidity;BME280_pressure;Samples;Min_cycle;Max_cycle;Signal;HPM_P1;HPM_P2
2022/03/10 00:00:27;;;;;;;4.97;4.57;;;;;;;;;;4996183;28;20226;-51
2022/03/10 00:02:54;;;;;;;5.05;4.40;;;;;;;;;;4996790;28;20237;-51
2022/03/10 00:05:22;;;;;;;6.03;4.47;;;;;;;;;;4997152;28;20660;-51
2022/03/10 00:07:49;;;;;;;5.03;4.53;;;;;;;;;;4996961;28;20290;-51
2022/03/10 00:10:16;;;;;;;5.70;4.43;;;;;;;;;;4996927;28;20243;-50
2022/03/10 00:12:52;;;;;;;4.35;3.95;;;;;;;;;;4995815;28;20295;-51
2022/03/10 00:15:21;;;;;;;4.60;4.20;;;;;;;;;;4995055;28;20239;-50
2022/03/10 00:17:48;;;;;;;4.95;4.45;;;;;;;;;;4995765;28;20322;-50
2022/03/10 00:20:15;;;;;;;4.70;4.00;;;;;;;;;;4995572;28;20231;-51
2022/03/10 00:22:49;;;;;;;4.57;4.10;;;;;;;;;;4995249;28;20242;-51
2022/03/10 00:25:17;;;;;;;5.32;4.07;;;;;;;;;;4994160;28;20297;-51
2022/03/10 00:27:44;;;;;;;4.40;3.92;;;;;;;;;;4995056;28;20235;-51
2022/03/10 00:30:13;;;;;;;4.40;4.00;;;;;;;;;;4995423;28;20231;-51
2022/03/10 00:32:44;;;;;;;4.30;4.00;;;;;;;;;;4994883;28;20223;-50
2022/03/10 00:35:11;;;;;;;4.63;4.22;;;;;;;;;;4995164;28;20239;-51
2022/03/10 00:37:39;;;;;;;4.28;3.88;;;;;;;;;;4994625;28;20238;-50
2022/03/10 00:40:07;;;;;;;4.65;4.25;;;;;;;;;;4995200;28;20239;-51
2022/03/10 00:42:38;;;;;;;4.00;3.70;;;;;;;;;;4995325;28;20321;-51
2022/03/10 00:45:06;;;;;;;4.25;3.85;;;;;;;;;;4994661;28;20254;-50
2022/03/10 00:47:35;;;;;;;4.18;3.60;;;;;;;;;;4994938;28;20328;-50
2022/03/10 00:50:03;;;;;;;4.18;3.80;;;;;;;;;;4994745;28;20675;-51
2022/03/10 00:52:30;;;;;;;4.20;3.80;;;;;;;;;;4995529;28;20301;-51
2022/03/10 00:54:57;;;;;;;3.90;3.60;;;;;;;;;;4994398;28;20239;-51
2022/03/10 00:57:25;;;;;;;3.63;3.33;;;;;;;;;;4995592;28;20231;-50
2022/03/10 00:59:52;;;;;;;3.75;3.45;;;;;;;;;;4994726;28;20530;-51
2022/03/10 01:02:19;;;;;;;4.00;3.70;;;;;;;;;;4995696;28;20234;-51
2022/03/10 01:04:48;;;;;;;4.30;3.90;;;;;;;;;;4998764;28;20231;-50
2022/03/10 01:07:15;;;;;;;4.18;3.80;;;;;;;;;;4998557;28;20633;-50
2022/03/10 01:09:42;;;;;;;3.90;3.50;;;;;;;;;;4998104;28;20304;-50
2022/03/10 01:12:10;;;;;;;4.03;3.72;;;;;;;;;;4998055;28;20223;-50
2022/03/10 01:14:37;;;;;;;3.63;3.33;;;;;;;;;;4998932;28;20231;-51
2022/03/10 01:17:05;;;;;;;3.60;3.30;;;;;;;;;;4998498;28;20491;-51
2022/03/10 01:19:32;;;;;;;3.92;3.53;;;;;;;;;;4998519;28;20238;-50
2022/03/10 01:22:01;;;;;;;3.80;3.50;;;;;;;;;;4999035;28;20339;-50
2022/03/10 01:24:28;;;;;;;3.50;3.20;;;;;;;;;;4998684;28;20305;-50
2022/03/10 01:26:55;;;;;;;3.45;3.15;;;;;;;;;;4998679;28;20270;-50
2022/03/10 01:29:22;;;;;;;3.55;3.25;;;;;;;;;;4997727;28;20226;-50
2022/03/10 01:31:50;;;;;;;3.50;3.20;;;;;;;;;;4998524;28;20238;-50
2022/03/10 01:34:17;;;;;;;4.05;3.65;;;;;;;;;;4997798;28;20211;-50
2022/03/10 01:36:44;;;;;;;3.72;3.28;;;;;;;;;;4997909;28;20226;-50
2022/03/10 01:39:13;;;;;;;3.47;3.17;;;;;;;;;;4998481;28;20590;-50
2022/03/10 01:41:40;;;;;;;3.65;3.35;;;;;;;;;;4997506;28;20242;-50
2022/03/10 01:44:10;;;;;;;3.67;3.38;;;;;;;;;;4998596;28;20247;-50
2022/03/10 01:46:37;;;;;;;3.88;3.50;;;;;;;;;;4997910;28;20534;-50
2022/03/10 01:49:05;;;;;;;3.70;3.40;;;;;;;;;;4998252;28;20589;-50
2022/03/10 01:51:32;;;;;;;3.83;3.53;;;;;;;;;;4997844;28;20253;-50
2022/03/10 01:54:00;;;;;;;3.72;3.42;;;;;;;;;;4998023;28;20300;-50
2022/03/10 01:56:29;;;;;;;3.63;3.30;;;;;;;;;;4998699;28;20211;-50
2022/03/10 01:58:56;;;;;;;3.58;3.28;;;;;;;;;;4998759;28;20726;-50
2022/03/10 02:01:24;;;;;;;3.80;3.50;;;;;;;;;;4998292;28;20289;-50
2022/03/10 02:03:52;;;;;;;3.50;3.20;;;;;;;;;;4998172;28;20602;-50
2022/03/10 02:06:19;;;;;;;3.70;3.40;;;;;;;;;;4998297;28;20273;-50
2022/03/10 02:11:33;;;;;;;3.38;3.05;;;;;;;;;;4998232;28;20265;-50
2022/03/10 02:17:19;;;;;;;3.67;3.38;;;;;;;;;;4997641;28;20219;-50
2022/03/10 02:19:32;;;;;;;3.25;2.95;;;;;;;;;;4998092;28;20198;-50
2022/03/10 02:22:08;;;;;;;3.70;3.35;;;;;;;;;;4998297;28;20254;-50
2022/03/10 02:24:36;;;;;;;3.55;3.25;;;;;;;;;;4998017;28;20207;-51
2022/03/10 02:27:12;;;;;;;3.10;2.80;;;;;;;;;;4998029;28;20313;-50
2022/03/10 02:29:40;;;;;;;3.85;3.55;;;;;;;;;;4997775;28;20206;-50
2022/03/10 02:32:08;;;;;;;3.80;3.50;;;;;;;;;;4997937;28;20277;-50
2022/03/10 02:34:35;;;;;;;3.20;3.00;;;;;;;;;;4997702;28;20207;-50
2022/03/10 02:37:02;;;;;;;3.60;3.30;;;;;;;;;;4998023;28;20278;-50
2022/03/10 02:39:31;;;;;;;3.58;3.28;;;;;;;;;;4997500;28;20281;-50
2022/03/10 02:41:58;;;;;;;3.60;3.30;;;;;;;;;;4997474;28;20215;-50
2022/03/10 02:44:26;;;;;;;3.97;3.58;;;;;;;;;;4997078;28;20222;-50
2022/03/10 02:46:53;;;;;;;3.10;2.90;;;;;;;;;;4997238;28;20297;-51
2022/03/10 02:49:20;;;;;;;3.60;3.30;;;;;;;;;;4997499;28;20207;-50
2022/03/10 02:51:47;;;;;;;3.70;3.40;;;;;;;;;;4997565;28;20241;-50
2022/03/10 02:54:15;;;;;;;3.53;3.22;;;;;;;;;;4997325;28;20202;-50
2022/03/10 02:56:44;;;;;;;3.80;3.50;;;;;;;;;;4997153;28;20207;-50
2022/03/10 02:59:11;;;;;;;3.60;3.30;;;;;;;;;;4997175;28;20278;-50
2022/03/10 03:01:38;;;;;;;3.60;3.30;;;;;;;;;;4997536;28;20684;-50
2022/03/10 03:04:06;;;;;;;3.50;3.20;;;;;;;;;;4997194;28;20566;-50
2022/03/10 03:06:34;;;;;;;3.63;3.33;;;;;;;;;;4997037;28;20250;-50
2022/03/10 03:09:01;;;;;;;3.90;3.42;;;;;;;;;;4997504;28;20608;-50
2022/03/10 03:11:29;;;;;;;4.00;3.60;;;;;;;;;;4997298;28;20199;-50
2022/03/10 03:13:57;;;;;;;3.20;2.90;;;;;;;;;;4997825;28;20281;-50
2022/03/10 03:16:25;;;;;;;3.40;3.10;;;;;;;;;;4997610;28;20222;-50
2022/03/10 03:18:53;;;;;;;3.20;3.00;;;;;;;;;;4997494;28;20234;-50
2022/03/10 03:21:20;;;;;;;3.65;3.35;;;;;;;;;;4997462;28;20207;-50
2022/03/10 03:23:47;;;;;;;3.17;2.88;;;;;;;;;;4997745;28;20273;-50
2022/03/10 03:26:15;;;;;;;3.25;3.05;;;;;;;;;;4996983;28;20289;-50
2022/03/10 03:28:43;;;;;;;3.50;3.20;;;;;;;;;;4998001;28;20503;-50
2022/03/10 03:31:11;;;;;;;3.67;3.40;;;;;;;;;;4997376;28;20254;-51
2022/03/10 03:33:39;;;;;;;3.47;3.17;;;;;;;;;;4997644;28;20534;-51
2022/03/10 03:36:07;;;;;;;3.88;3.00;;;;;;;;;;4997887;28;20466;-50
2022/03/10 03:38:34;;;;;;;3.45;3.15;;;;;;;;;;4997454;28;20203;-50
2022/03/10 03:41:03;;;;;;;3.20;2.90;;;;;;;;;;4996432;28;20207;-50
2022/03/10 03:43:30;;;;;;;3.53;3.22;;;;;;;;;;4996501;28;20218;-51
2022/03/10 03:45:58;;;;;;;3.85;3.50;;;;;;;;;;4996614;28;20235;-51
2022/03/10 03:48:26;;;;;;;3.28;2.90;;;;;;;;;;4997259;28;20286;-50
2022/03/10 03:50:54;;;;;;;3.50;3.20;;;;;;;;;;4996715;28;20263;-50
2022/03/10 03:53:21;;;;;;;3.15;2.90;;;;;;;;;;4997259;28;20262;-50
2022/03/10 03:55:49;;;;;;;3.20;2.90;;;;;;;;;;4996719;28;20211;-50
2022/03/10 03:58:16;;;;;;;3.13;2.92;;;;;;;;;;4996880;28;20211;-50
2022/03/10 04:00:43;;;;;;;3.67;3.38;;;;;;;;;;4996756;28;20207;-50
2022/03/10 04:03:12;;;;;;;3.50;3.20;;;;;;;;;;4996524;28;20207;-50
2022/03/10 04:05:41;;;;;;;3.55;3.25;;;;;;;;;;4996153;28;20640;-50
2022/03/10 04:08:08;;;;;;;3.53;3.17;;;;;;;;;;4996409;28;20303;-50
2022/03/10 04:10:37;;;;;;;3.58;3.28;;;;;;;;;;4996582;28;20215;-50
2022/03/10 04:13:05;;;;;;;3.03;2.83;;;;;;;;;;4996571;28;20301;-50
2022/03/10 04:15:33;;;;;;;3.10;2.90;;;;;;;;;;4996408;28;20656;-50
2022/03/10 04:18:00;;;;;;;3.38;3.08;;;;;;;;;;4996578;28;20269;-51
2022/03/10 04:20:28;;;;;;;3.70;3.40;;;;;;;;;;4996617;28;20213;-50
2022/03/10 04:22:56;;;;;;;3.05;2.85;;;;;;;;;;4996358;28;20214;-50
2022/03/10 04:25:24;;;;;;;3.55;3.25;;;;;;;;;;4996898;28;20506;-50
2022/03/10 04:27:53;;;;;;;3.40;3.10;;;;;;;;;;4996699;28;20235;-50
2022/03/10 04:30:22;;;;;;;3.28;2.97;;;;;;;;;;4996297;28;20261;-50
2022/03/10 04:32:51;;;;;;;3.10;2.90;;;;;;;;;;4995899;28;20217;-50
2022/03/10 04:35:19;;;;;;;3.15;2.83;;;;;;;;;;4996282;28;20215;-50
2022/03/10 04:37:49;;;;;;;3.38;3.17;;;;;;;;;;4998787;28;20273;-50
2022/03/10 04:40:17;;;;;;;3.47;3.17;;;;;;;;;;4999928;28;20217;-50
2022/03/10 04:42:45;;;;;;;3.40;3.10;;;;;;;;;;5000300;28;20305;-50
2022/03/10 04:45:12;;;;;;;3.40;3.10;;;;;;;;;;4999657;28;20243;-50
2022/03/10 04:47:41;;;;;;;3.60;3.30;;;;;;;;;;5000061;28;20230;-50
2022/03/10 04:50:09;;;;;;;3.30;3.00;;;;;;;;;;5000232;28;20585;-50
2022/03/10 04:52:37;;;;;;;3.50;3.20;;;;;;;;;;4999624;28;20519;-50
2022/03/10 04:55:04;;;;;;;3.33;3.03;;;;;;;;;;5000200;28;20270;-50
2022/03/10 04:57:34;;;;;;;3.55;3.25;;;;;;;;;;4999945;28;20218;-51
2022/03/10 05:00:02;;;;;;;2.92;2.72;;;;;;;;;;4999806;28;20215;-51
2022/03/10 05:02:30;;;;;;;3.30;3.00;;;;;;;;;;4998721;28;20199;-50
2022/03/10 05:04:57;;;;;;;3.47;3.17;;;;;;;;;;4999441;28;20501;-50
2022/03/10 05:07:24;;;;;;;3.20;3.00;;;;;;;;;;4999448;28;20207;-51
2022/03/10 05:09:51;;;;;;;3.53;3.22;;;;;;;;;;4999976;28;20210;-50
2022/03/10 05:12:19;;;;;;;3.50;3.20;;;;;;;;;;4999440;28;20269;-51
2022/03/10 05:14:47;;;;;;;3.60;3.30;;;;;;;;;;4998739;28;20215;-50
2022/03/10 05:17:15;;;;;;;3.20;3.00;;;;;;;;;;4998595;28;20282;-51
2022/03/10 05:19:42;;;;;;;3.40;3.10;;;;;;;;;;4998777;28;20219;-50
2022/03/10 05:22:09;;;;;;;3.53;3.22;;;;;;;;;;4998501;28;20652;-50
2022/03/10 05:24:36;;;;;;;3.60;3.10;;;;;;;;;;4998607;28;20215;-50
2022/03/10 05:27:04;;;;;;;3.40;3.10;;;;;;;;;;4998239;28;20207;-50
2022/03/10 05:29:31;;;;;;;3.40;3.10;;;;;;;;;;4998231;28;20241;-50
2022/03/10 05:32:00;;;;;;;3.00;2.80;;;;;;;;;;4998929;28;20253;-50
2022/03/10 05:34:27;;;;;;;3.60;3.30;;;;;;;;;;4998273;28;20210;-50
2022/03/10 05:36:55;;;;;;;4.43;3.30;;;;;;;;;;4998406;28;20238;-50
2022/03/10 05:39:23;;;;;;;7.45;3.10;;;;;;;;;;4998295;28;20207;-50
2022/03/10 05:41:50;;;;;;;8.88;3.30;;;;;;;;;;4998032;28;20215;-50
2022/03/10 05:44:17;;;;;;;3.58;3.10;;;;;;;;;;4997308;28;20218;-50
2022/03/10 05:46:44;;;;;;;5.13;3.10;;;;;;;;;;4996529;28;20534;-50
2022/03/10 05:49:13;;;;;;;4.25;3.30;;;;;;;;;;4996418;28;20594;-48
2022/03/10 05:51:40;;;;;;;4.28;3.35;;;;;;;;;;4990490;28;20215;-48
2022/03/10 05:54:08;;;;;;;3.25;2.95;;;;;;;;;;4977607;28;20298;-48
2022/03/10 05:56:35;;;;;;;3.40;3.03;;;;;;;;;;4976809;28;20263;-48
2022/03/10 05:59:02;;;;;;;3.55;2.72;;;;;;;;;;4975590;28;20211;-48
2022/03/10 06:01:30;;;;;;;3.47;3.17;;;;;;;;;;4976134;28;20199;-50
2022/03/10 06:03:57;;;;;;;4.28;2.95;;;;;;;;;;4974972;28;20215;-50
2022/03/10 06:06:26;;;;;;;5.07;3.20;;;;;;;;;;4975455;28;20254;-48
2022/03/10 06:08:54;;;;;;;3.72;2.95;;;;;;;;;;4975461;28;20286;-48
2022/03/10 06:11:21;;;;;;;3.15;2.78;;;;;;;;;;4974905;28;20356;-48
2022/03/10 06:13:48;;;;;;;3.10;2.90;;;;;;;;;;4974036;28;20215;-49
2022/03/10 06:16:15;;;;;;;2.95;2.75;;;;;;;;;;4975347;28;20214;-48
2022/03/10 06:18:43;;;;;;;3.10;2.80;;;;;;;;;;4974820;28;20208;-49
2022/03/10 06:21:10;;;;;;;3.35;3.05;;;;;;;;;;4975100;28;20219;-48
2022/03/10 06:23:39;;;;;;;3.20;2.90;;;;;;;;;;4975000;28;20234;-48
2022/03/10 06:26:06;;;;;;;3.10;2.90;;;;;;;;;;4974434;28;20218;-48
2022/03/10 06:28:34;;;;;;;3.22;2.92;;;;;;;;;;4974791;28;20290;-48
2022/03/10 06:31:01;;;;;;;3.33;2.58;;;;;;;;;;4974024;28;20290;-48
2022/03/10 06:33:28;;;;;;;3.15;2.88;;;;;;;;;;4975074;28;20270;-48
2022/03/10 06:35:56;;;;;;;3.00;2.80;;;;;;;;;;4974429;28;20694;-48
2022/03/10 06:38:24;;;;;;;3.17;2.88;;;;;;;;;;4974847;28;20270;-48
2022/03/10 06:40:52;;;;;;;3.25;3.05;;;;;;;;;;4974569;28;20207;-48
2022/03/10 06:43:19;;;;;;;3.38;3.08;;;;;;;;;;4974232;28;20207;-48
2022/03/10 06:45:47;;;;;;;3.10;2.85;;;;;;;;;;4972777;28;20571;-48
2022/03/10 06:48:14;;;;;;;3.40;3.10;;;;;;;;;;4973044;28;20235;-48
2022/03/10 06:50:41;;;;;;;3.15;2.90;;;;;;;;;;4973341;28;20536;-48
2022/03/10 06:53:08;;;;;;;3.33;3.08;;;;;;;;;;4971944;28;20279;-48
2022/03/10 06:55:36;;;;;;;3.30;3.05;;;;;;;;;;4971938;28;20235;-48
2022/03/10 06:58:04;;;;;;;3.30;3.00;;;;;;;;;;4972609;28;20247;-48
2022/03/10 07:00:33;;;;;;;3.50;3.20;;;;;;;;;;4972683;28;20314;-48
2022/03/10 07:03:00;;;;;;;3.17;2.97;;;;;;;;;;4972571;28;20231;-48
2022/03/10 07:05:28;;;;;;;3.20;2.90;;;;;;;;;;4973209;28;20330;-48
2022/03/10 07:07:55;;;;;;;3.08;2.80;;;;;;;;;;4973992;28;20243;-48
2022/03/10 07:10:23;;;;;;;3.67;3.33;;;;;;;;;;4973789;28;20266;-48
2022/03/10 07:12:50;;;;;;;3.40;3.10;;;;;;;;;;4972881;28;20473;-48
2022/03/10 07:15:19;;;;;;;2.95;2.75;;;;;;;;;;4982245;28;20614;-48
2022/03/10 07:17:47;;;;;;;3.58;3.28;;;;;;;;;;4987579;28;20214;-48
2022/03/10 07:20:15;;;;;;;3.30;3.00;;;;;;;;;;4975183;28;20207;-49
2022/03/10 07:22:52;;;;;;;4.07;3.40;;;;;;;;;;5132700;27;20899;-50
2022/03/10 07:25:20;;;;;;;3.50;3.20;;;;;;;;;;5131987;27;20209;-50
2022/03/10 07:27:47;;;;;;;3.40;3.10;;;;;;;;;;5132667;27;20233;-50
2022/03/10 07:30:15;;;;;;;3.67;3.38;;;;;;;;;;5128343;27;20196;-49
2022/03/10 07:32:42;;;;;;;3.50;3.17;;;;;;;;;;5112426;28;20199;-50
2022/03/10 07:35:10;;;;;;;3.75;3.45;;;;;;;;;;5112502;28;20268;-49
2022/03/10 07:37:37;;;;;;;3.80;3.47;;;;;;;;;;5111797;28;20562;-50
2022/03/10 07:40:06;;;;;;;3.85;3.45;;;;;;;;;;5111827;28;20460;-50
2022/03/10 07:42:34;;;;;;;3.97;3.60;;;;;;;;;;5111340;28;20594;-50
2022/03/10 07:45:01;;;;;;;4.60;3.47;;;;;;;;;;5110970;28;20267;-49
2022/03/10 07:47:28;;;;;;;3.88;3.22;;;;;;;;;;5117358;28;20456;-50
2022/03/10 07:49:57;;;;;;;3.75;3.35;;;;;;;;;;5132547;27;20202;-49
2022/03/10 07:52:24;;;;;;;4.00;3.22;;;;;;;;;;5132890;27;20249;-50
2022/03/10 07:54:51;;;;;;;4.18;3.28;;;;;;;;;;5132102;27;20206;-50
2022/03/10 07:57:20;;;;;;;4.90;3.67;;;;;;;;;;5131419;27;20647;-50
2022/03/10 07:59:49;;;;;;;3.83;3.50;;;;;;;;;;5111716;27;20203;-50
2022/03/10 08:02:16;;;;;;;4.03;3.60;;;;;;;;;;5111365;28;20231;-50
2022/03/10 08:04:43;;;;;;;4.13;3.28;;;;;;;;;;5110593;28;20268;-50
2022/03/10 08:07:11;;;;;;;3.92;3.63;;;;;;;;;;5110524;28;20316;-50
2022/03/10 08:09:38;;;;;;;4.35;3.55;;;;;;;;;;5111523;28;20275;-50
2022/03/10 08:12:07;;;;;;;3.70;3.40;;;;;;;;;;5109769;28;20203;-50
2022/03/10 08:14:36;;;;;;;4.15;3.72;;;;;;;;;;5110928;28;20204;-50
2022/03/10 08:17:03;;;;;;;4.03;3.70;;;;;;;;;;5111492;28;20211;-50
2022/03/10 08:19:30;;;;;;;4.32;3.92;;;;;;;;;;5110150;28;20288;-50
2022/03/10 08:21:58;;;;;;;4.40;4.00;;;;;;;;;;5119507;28;20514;-50
2022/03/10 08:24:27;;;;;;;4.55;3.83;;;;;;;;;;5131283;27;20500;-50
2022/03/10 08:26:54;;;;;;;4.05;3.65;;;;;;;;;;5131011;27;20214;-50
2022/03/10 08:29:23;;;;;;;4.15;3.75;;;;;;;;;;5130381;27;20441;-50
2022/03/10 08:31:51;;;;;;;4.72;3.75;;;;;;;;;;5130285;27;20217;-50
2022/03/10 08:34:19;;;;;;;4.28;3.75;;;;;;;;;;5115488;28;20199;-50
2022/03/10 08:36:46;;;;;;;4.13;3.72;;;;;;;;;;5116481;28;20518;-50
2022/03/10 08:39:13;;;;;;;3.92;3.50;;;;;;;;;;5116501;28;20590;-50
2022/03/10 08:41:40;;;;;;;4.13;3.72;;;;;;;;;;5116479;28;20214;-50
2022/03/10 08:44:08;;;;;;;4.53;3.80;;;;;;;;;;5112042;28;20208;-50
2022/03/10 08:46:35;;;;;;;4.13;3.72;;;;;;;;;;5098236;28;20203;-50
2022/03/10 08:49:04;;;;;;;3.88;3.58;;;;;;;;;;5115278;28;20590;-50
2022/03/10 08:51:31;;;;;;;3.80;3.50;;;;;;;;;;5115567;28;20570;-50
2022/03/10 08:53:59;;;;;;;4.68;3.70;;;;;;;;;;5117152;28;20558;-50
2022/03/10 08:56:26;;;;;;;4.15;3.75;;;;;;;;;;5116657;28;20585;-50
2022/03/10 08:58:53;;;;;;;5.05;3.92;;;;;;;;;;5116135;28;20279;-50
2022/03/10 09:01:20;;;;;;;4.38;3.97;;;;;;;;;;5116276;28;20249;-50
2022/03/10 09:03:47;;;;;;;3.85;3.55;;;;;;;;;;5116645;28;20211;-50
2022/03/10 09:06:16;;;;;;;4.22;3.83;;;;;;;;;;5116936;28;20203;-52
2022/03/10 09:08:45;;;;;;;4.18;3.67;;;;;;;;;;5115045;28;20623;-52
2022/03/10 09:11:12;;;;;;;4.22;3.83;;;;;;;;;;5115346;27;20211;-50
2022/03/10 09:13:43;;;;;;;4.43;3.72;;;;;;;;;;5115107;28;20570;-51
2022/03/10 09:16:10;;;;;;;4.05;3.65;;;;;;;;;;5116555;28;20263;-49
2022/03/10 09:18:37;;;;;;;3.63;3.33;;;;;;;;;;5115660;28;20479;-49
2022/03/10 09:21:06;;;;;;;4.03;3.60;;;;;;;;;;5118253;28;20234;-50
2022/03/10 09:23:35;;;;;;;4.00;3.60;;;;;;;;;;5117465;28;20749;-50
2022/03/10 09:26:02;;;;;;;3.70;3.40;;;;;;;;;;5115457;28;20238;-51
2022/03/10 09:28:29;;;;;;;4.00;3.60;;;;;;;;;;5116296;28;20195;-50
2022/03/10 09:30:56;;;;;;;3.90;3.50;;;;;;;;;;5116360;28;20812;-50
2022/03/10 09:33:24;;;;;;;4.07;3.50;;;;;;;;;;5114955;28;20574;-50
2022/03/10 09:35:51;;;;;;;4.35;3.75;;;;;;;;;;5115402;28;20586;-50
2022/03/10 09:38:19;;;;;;;3.88;3.40;;;;;;;;;;5115193;28;20231;-51
2022/03/10 09:40:52;;;;;;;4.00;3.60;;;;;;;;;;5115426;28;20203;-51
2022/03/10 09:43:20;;;;;;;3.95;3.55;;;;;;;;;;5115073;28;20636;-50
2022/03/10 09:45:48;;;;;;;4.18;3.42;;;;;;;;;;5114602;28;20211;-50
2022/03/10 09:48:15;;;;;;;3.95;3.38;;;;;;;;;;5115881;28;20210;-52
2022/03/10 09:50:43;;;;;;;4.47;3.15;;;;;;;;;;5114930;28;20264;-50
2022/03/10 09:53:10;;;;;;;5.13;3.70;;;;;;;;;;5115485;28;20207;-50
2022/03/10 09:55:37;;;;;;;3.55;3.20;;;;;;;;;;5115079;28;20653;-50
2022/03/10 09:58:07;;;;;;;3.40;3.10;;;;;;;;;;5116057;28;20248;-50
2022/03/10 10:00:34;;;;;;;4.05;3.15;;;;;;;;;;5115979;28;20203;-50
2022/03/10 10:03:02;;;;;;;4.35;3.28;;;;;;;;;;5115104;28;20234;-50
2022/03/10 10:05:30;;;;;;;4.70;3.17;;;;;;;;;;5114590;28;20295;-50
2022/03/10 10:08:04;;;;;;;4.25;3.40;;;;;;;;;;5113706;28;20203;-50
2022/03/10 10:10:32;;;;;;;4.68;3.30;;;;;;;;;;5114551;28;20222;-50
2022/03/10 10:13:05;;;;;;;3.65;3.30;;;;;;;;;;5116510;28;20200;-51
2022/03/10 10:15:35;;;;;;;4.63;3.10;;;;;;;;;;5113971;28;20390;-50
2022/03/10 10:18:02;;;;;;;3.58;3.10;;;;;;;;;;5115500;28;20284;-50
2022/03/10 10:20:33;;;;;;;3.90;3.00;;;;;;;;;;5114650;28;20211;-50
2022/03/10 10:23:15;;;;;;;3.20;2.90;;;;;;;;;;5115034;28;20659;-50
2022/03/10 10:25:49;;;;;;;3.38;3.08;;;;;;;;;;5115168;28;20254;-50
2022/03/10 10:28:22;;;;;;;5.63;3.00;;;;;;;;;;5113467;28;20207;-50
2022/03/10 10:30:55;;;;;;;3.85;3.20;;;;;;;;;;5113406;28;20244;-50
2022/03/10 10:33:23;;;;;;;3.22;2.92;;;;;;;;;;5113553;28;20462;-50
2022/03/10 10:35:50;;;;;;;3.58;3.00;;;;;;;;;;5114131;28;20203;-50
2022/03/10 10:38:29;;;;;;;3.17;2.88;;;;;;;;;;5114577;28;20755;-50
2022/03/10 10:41:15;;;;;;;3.90;2.72;;;;;;;;;;5114642;28;20221;-50
2022/03/10 10:43:43;;;;;;;3.28;2.97;;;;;;;;;;5113712;28;20222;-50
2022/03/10 10:46:21;;;;;;;3.10;2.80;;;;;;;;;;5112941;28;20644;-50
2022/03/10 10:48:49;;;;;;;2.60;2.40;;;;;;;;;;5112838;28;20586;-50
2022/03/10 10:51:16;;;;;;;3.42;2.92;;;;;;;;;;5113517;28;20267;-50
2022/03/10 10:53:43;;;;;;;3.13;2.75;;;;;;;;;;5113647;28;20259;-51
2022/03/10 10:56:10;;;;;;;3.17;2.85;;;;;;;;;;5112340;28;20206;-50
2022/03/10 10:58:39;;;;;;;3.38;3.05;;;;;;;;;;5113725;28;20203;-51
2022/03/10 11:01:07;;;;;;;3.88;3.15;;;;;;;;;;5113276;28;20206;-50
2022/03/10 11:03:37;;;;;;;3.03;2.72;;;;;;;;;;5113205;28;20226;-50
2022/03/10 11:06:04;;;;;;;2.70;2.50;;;;;;;;;;5113685;28;20246;-50
2022/03/10 11:08:31;;;;;;;3.50;2.80;;;;;;;;;;5113565;28;20268;-50
2022/03/10 11:10:59;;;;;;;2.92;2.72;;;;;;;;;;5113305;28;20586;-51
2022/03/10 11:13:28;;;;;;;3.40;2.70;;;;;;;;;;5113561;28;20198;-51
2022/03/10 11:15:55;;;;;;;3.22;2.60;;;;;;;;;;5114240;28;20198;-51
2022/03/10 11:18:23;;;;;;;3.30;2.53;;;;;;;;;;5113248;28;20214;-51
2022/03/10 11:20:54;;;;;;;2.95;2.60;;;;;;;;;;5112567;28;20302;-51
2022/03/10 11:23:30;;;;;;;4.93;2.90;;;;;;;;;;5113779;28;20636;-51
2022/03/10 11:26:03;;;;;;;3.33;2.70;;;;;;;;;;5112123;28;20425;-50
2022/03/10 11:28:31;;;;;;;3.00;2.53;;;;;;;;;;5111948;28;20203;-50
2022/03/10 11:31:00;;;;;;;2.58;2.28;;;;;;;;;;5111430;28;20268;-51
2022/03/10 11:33:30;;;;;;;2.78;2.40;;;;;;;;;;5112546;28;20203;-50
2022/03/10 11:35:59;;;;;;;3.53;2.70;;;;;;;;;;5112353;28;20287;-50
2022/03/10 11:38:50;;;;;;;3.70;2.45;;;;;;;;;;5113333;28;20298;-51
2022/03/10 11:41:18;;;;;;;2.60;2.40;;;;;;;;;;5111713;28;20203;-50
2022/03/10 11:43:56;;;;;;;2.95;2.33;;;;;;;;;;5110569;28;20230;-51
2022/03/10 11:46:24;;;;;;;2.60;2.40;;;;;;;;;;5112309;28;20212;-51
2022/03/10 11:49:01;;;;;;;2.65;2.45;;;;;;;;;;5112560;28;20293;-51
2022/03/10 11:51:43;;;;;;;3.00;2.67;;;;;;;;;;5111615;28;20269;-51
2022/03/10 11:54:12;;;;;;;3.25;2.90;;;;;;;;;;5109211;28;20203;-51
2022/03/10 11:57:06;;;;;;;2.80;2.60;;;;;;;;;;5112688;28;20259;-51
2022/03/10 11:59:47;;;;;;;3.53;2.65;;;;;;;;;;5112612;28;20195;-51
2022/03/10 12:02:31;;;;;;;4.28;2.83;;;;;;;;;;5112039;28;20555;-51
2022/03/10 12:04:58;;;;;;;3.08;2.72;;;;;;;;;;5111759;28;20275;-51
2022/03/10 12:07:28;;;;;;;2.58;2.38;;;;;;;;;;5112805;28;20203;-51
2022/03/10 12:10:04;;;;;;;3.90;2.90;;;;;;;;;;5115538;28;20203;-51
2022/03/10 12:12:37;;;;;;;18.98;16.52;;;;;;;;;;5117239;28;20697;-51
2022/03/10 12:15:31;;;;;;;41.63;34.63;;;;;;;;;;5116519;28;20209;-51
2022/03/10 12:17:58;;;;;;;45.15;34.88;;;;;;;;;;5081339;28;20260;-50
2022/03/10 12:20:26;;;;;;;43.30;35.08;;;;;;;;;;5116898;28;20597;-51
2022/03/10 12:23:11;;;;;;;41.33;34.80;;;;;;;;;;5117082;27;20226;-51
2022/03/10 12:25:41;;;;;;;43.95;37.25;;;;;;;;;;5116706;28;20214;-51
2022/03/10 12:28:09;;;;;;;49.80;42.63;;;;;;;;;;5117160;28;20607;-51
2022/03/10 12:30:41;;;;;;;52.97;43.67;;;;;;;;;;5117583;28;20211;-51
2022/03/10 12:33:08;;;;;;;45.90;38.65;;;;;;;;;;5117310;28;20256;-51
2022/03/10 12:35:36;;;;;;;42.63;36.67;;;;;;;;;;5116675;28;20263;-51
2022/03/10 12:38:04;;;;;;;41.00;34.03;;;;;;;;;;5117316;28;20290;-51
2022/03/10 12:40:32;;;;;;;39.03;33.85;;;;;;;;;;5117347;28;20213;-51
2022/03/10 12:43:02;;;;;;;36.70;32.65;;;;;;;;;;5116950;28;20229;-51
2022/03/10 12:45:29;;;;;;;37.03;32.20;;;;;;;;;;5116268;28;20211;-51
2022/03/10 12:48:00;;;;;;;36.20;30.83;;;;;;;;;;5117132;28;20199;-51
2022/03/10 12:50:28;;;;;;;34.40;29.60;;;;;;;;;;5117666;28;20199;-51
2022/03/10 12:52:56;;;;;;;33.58;28.35;;;;;;;;;;5117260;28;20638;-51
2022/03/10 12:55:26;;;;;;;33.45;28.85;;;;;;;;;;5117083;28;20207;-50
2022/03/10 12:57:58;;;;;;;30.73;26.70;;;;;;;;;;5116971;28;20203;-51
2022/03/10 13:00:27;;;;;;;31.38;27.98;;;;;;;;;;5116529;28;20207;-51
2022/03/10 13:02:58;;;;;;;30.65;25.80;;;;;;;;;;5117381;28;20629;-51
2022/03/10 13:05:26;;;;;;;30.25;26.27;;;;;;;;;;5116857;28;20267;-51
2022/03/10 13:07:54;;;;;;;27.08;23.55;;;;;;;;;;5117215;28;20210;-51
2022/03/10 13:10:22;;;;;;;29.02;24.05;;;;;;;;;;5118002;28;20698;-51
2022/03/10 13:12:52;;;;;;;25.75;22.83;;;;;;;;;;5117122;27;20521;-51
2022/03/10 13:15:21;;;;;;;25.73;22.42;;;;;;;;;;5116899;28;20283;-51
2022/03/10 13:17:50;;;;;;;25.67;21.75;;;;;;;;;;5117403;27;20228;-51
2022/03/10 13:20:19;;;;;;;25.13;21.65;;;;;;;;;;5116104;28;20203;-51
2022/03/10 13:22:47;;;;;;;23.23;20.63;;;;;;;;;;5116028;28;20262;-51
2022/03/10 13:25:15;;;;;;;22.13;19.15;;;;;;;;;;5116102;28;20211;-51
2022/03/10 13:27:43;;;;;;;22.40;19.27;;;;;;;;;;5115860;28;20597;-51
2022/03/10 13:30:17;;;;;;;20.88;18.50;;;;;;;;;;5116446;28;20203;-51
2022/03/10 13:32:45;;;;;;;19.77;17.67;;;;;;;;;;5114893;27;20190;-51
2022/03/10 13:35:13;;;;;;;20.83;18.10;;;;;;;;;;5114872;28;20199;-51
2022/03/10 13:37:41;;;;;;;18.73;16.02;;;;;;;;;;5116720;28;20271;-51
2022/03/10 13:40:09;;;;;;;17.00;15.20;;;;;;;;;;5116086;28;20689;-51
2022/03/10 13:42:36;;;;;;;17.38;15.20;;;;;;;;;;5115631;28;20211;-51
2022/03/10 13:45:07;;;;;;;16.75;14.63;;;;;;;;;;5115249;28;20210;-51
2022/03/10 13:47:54;;;;;;;15.80;14.18;;;;;;;;;;5115253;28;20203;-51
2022/03/10 13:50:24;;;;;;;15.05;13.38;;;;;;;;;;5115106;28;20275;-51
2022/03/10 13:52:53;;;;;;;14.98;13.45;;;;;;;;;;5115699;28;20199;-51
2022/03/10 13:55:26;;;;;;;14.88;13.30;;;;;;;;;;5115981;28;20199;-51
2022/03/10 13:57:53;;;;;;;14.57;13.07;;;;;;;;;;5115117;28;20210;-51
2022/03/10 14:00:25;;;;;;;15.10;13.18;;;;;;;;;;5114730;28;20213;-51
2022/03/10 14:02:53;;;;;;;12.82;11.52;;;;;;;;;;5114168;28;20219;-51
2022/03/10 14:05:21;;;;;;;13.27;11.93;;;;;;;;;;5114400;28;20227;-51
2022/03/10 14:07:53;;;;;;;12.27;10.95;;;;;;;;;;5115214;28;20298;-51
2022/03/10 14:10:30;;;;;;;12.23;10.93;;;;;;;;;;5114596;28;20781;-51
2022/03/10 14:12:58;;;;;;;12.93;11.52;;;;;;;;;;5114864;28;20500;-52
2022/03/10 14:15:29;;;;;;;12.80;11.38;;;;;;;;;;5115430;28;20290;-51
2022/03/10 14:17:58;;;;;;;11.93;10.48;;;;;;;;;;5115504;28;20769;-51
2022/03/10 14:20:44;;;;;;;11.73;10.32;;;;;;;;;;5115145;28;20205;-51
2022/03/10 14:23:16;;;;;;;10.85;9.75;;;;;;;;;;5115103;28;20222;-51
2022/03/10 14:25:44;;;;;;;10.98;9.80;;;;;;;;;;5114937;28;20218;-51
2022/03/10 14:28:12;;;;;;;10.40;9.40;;;;;;;;;;5115893;28;20305;-51
2022/03/10 14:30:40;;;;;;;10.98;9.77;;;;;;;;;;5114490;28;20199;-51
2022/03/10 14:33:07;;;;;;;10.07;9.05;;;;;;;;;;5114943;28;20630;-51
2022/03/10 14:35:37;;;;;;;10.60;8.95;;;;;;;;;;5114896;28;20705;-51
2022/03/10 14:38:07;;;;;;;10.73;9.63;;;;;;;;;;5115505;28;20317;-51
2022/03/10 14:40:35;;;;;;;10.02;8.85;;;;;;;;;;5115767;28;20585;-51
2022/03/10 14:43:03;;;;;;;9.85;8.77;;;;;;;;;;5115138;28;20233;-51
2022/03/10 14:45:30;;;;;;;9.63;8.32;;;;;;;;;;5115495;28;20207;-51
2022/03/10 14:47:57;;;;;;;9.02;7.88;;;;;;;;;;5114988;28;20203;-51
2022/03/10 14:50:25;;;;;;;9.20;8.30;;;;;;;;;;5115798;28;20275;-51
2022/03/10 14:52:52;;;;;;;9.57;8.57;;;;;;;;;;5115022;28;20572;-51